createdAt,value
2018-10-02T00:48:55.478Z,7.80
2018-10-02T00:53:58.785Z,7.13
2018-10-02T00:59:02.110Z,6.63
2018-10-02T02:35:59.536Z,4.30
2018-10-02T02:41:02.845Z,6.37
2018-10-02T03:49:22.703Z,7.80
2018-10-02T03:54:26.034Z,6.17
2018-10-02T03:59:29.350Z,8.40
2018-10-02T04:33:18.945Z,9.43
2018-10-02T04:38:22.253Z,8.63
2018-10-02T04:43:27.424Z,8.87
2018-10-02T04:48:30.738Z,11.17
2018-10-02T04:53:34.061Z,8.17
2018-10-02T04:58:37.377Z,6.00
2018-10-02T05:03:40.697Z,6.30
2018-10-02T05:08:44.058Z,11.93
2018-10-02T05:13:48.135Z,12.57
2018-10-02T05:18:51.470Z,6.30
2018-10-02T05:23:55.583Z,7.43
2018-10-02T05:28:58.919Z,11.43
2018-10-02T05:34:02.230Z,9.07
2018-10-02T05:39:06.323Z,9.90
2018-10-02T05:44:09.638Z,8.23
2018-10-02T05:49:12.960Z,10.47
2018-10-02T05:54:16.279Z,8.67
2018-10-02T05:59:19.610Z,8.67
2018-10-02T06:04:23.687Z,8.80
2018-10-02T06:09:27.015Z,11.60
2018-10-02T06:14:30.338Z,8.93
2018-10-02T06:19:33.674Z,9.80
2018-10-02T06:24:37.048Z,8.20
2018-10-02T06:29:40.334Z,12.50
2018-10-02T07:03:29.750Z,13.37
2018-10-02T07:08:33.094Z,11.43
2018-10-02T07:13:37.218Z,12.27
2018-10-02T08:04:42.336Z,7.67
2018-10-02T08:09:45.580Z,7.17
2018-10-02T08:14:48.948Z,7.67
2018-10-02T09:05:53.566Z,6.27
2018-10-02T09:10:56.887Z,5.33
2018-10-02T10:02:02.139Z,4.77
2018-10-02T10:07:05.492Z,3.70
2018-10-02T10:12:08.852Z,4.87
2018-10-02T11:03:15.202Z,4.23
2018-10-02T11:08:19.295Z,3.70
2018-10-02T11:13:22.624Z,3.37
2018-10-02T12:04:27.282Z,3.83
2018-10-02T12:09:30.610Z,7.43
2018-10-02T12:14:33.952Z,3.07
2018-10-02T13:05:40.027Z,3.50
2018-10-02T13:10:43.364Z,3.30
2018-10-02T14:01:45.546Z,2.73
2018-10-02T14:06:48.875Z,2.70
2018-10-02T14:11:52.213Z,3.40
2018-10-02T14:45:56.766Z,1.93
2018-10-02T14:51:00.127Z,3.70
2018-10-02T14:56:03.459Z,3.10
2018-10-02T15:35:37.465Z,2.50
2018-10-02T15:40:40.797Z,2.57
2018-10-02T15:45:44.890Z,2.60
2018-10-02T15:50:48.280Z,3.17
2018-10-02T15:55:51.570Z,3.07
2018-10-02T16:00:54.899Z,2.27
2018-10-02T16:05:58.231Z,4.83
2018-10-02T16:11:01.591Z,3.10
2018-10-02T16:16:04.904Z,2.87
2018-10-02T16:21:09.099Z,4.60
2018-10-02T16:26:12.443Z,2.27
2018-10-02T16:31:17.161Z,3.67
2018-10-02T16:36:21.291Z,3.10
2018-10-02T16:41:24.618Z,3.37
2018-10-02T16:46:27.955Z,3.87
2018-10-02T16:51:31.291Z,3.97
2018-10-02T16:56:34.621Z,5.40
2018-10-02T17:01:37.951Z,4.80
2018-10-02T17:06:41.282Z,3.47
2018-10-02T17:11:44.613Z,5.53
2018-10-02T17:16:47.947Z,6.23
2018-10-02T17:21:51.276Z,3.33
2018-10-02T17:26:54.609Z,5.90
2018-10-02T17:31:57.955Z,3.63
2018-10-02T17:37:02.070Z,4.77
2018-10-02T17:42:05.405Z,4.37
2018-10-02T17:47:14.910Z,4.37
2018-10-02T17:52:18.231Z,4.37
2018-10-02T17:57:21.563Z,4.10
2018-10-02T18:02:25.682Z,3.00
2018-10-02T18:07:33.300Z,4.30
2018-10-02T18:12:36.742Z,2.57
2018-10-02T18:17:44.737Z,2.17
2018-10-02T18:22:48.078Z,2.93
2018-10-02T18:27:52.176Z,3.97
2018-10-02T18:32:55.599Z,2.67
2018-10-02T18:37:58.926Z,2.53
2018-10-02T18:43:03.146Z,3.83
2018-10-02T18:48:07.218Z,1.87
2018-10-02T18:53:10.635Z,2.37
2018-10-02T18:58:27.952Z,2.67
2018-10-02T19:03:32.046Z,4.53
2018-10-02T19:08:35.384Z,4.70
2018-10-02T19:13:38.714Z,4.53
2018-10-02T19:18:42.048Z,3.40
2018-10-02T19:23:45.375Z,3.17
2018-10-02T19:28:48.698Z,2.43
2018-10-02T19:33:52.028Z,2.60
2018-10-02T19:38:56.135Z,3.23
2018-10-02T19:43:59.466Z,2.67
2018-10-02T19:49:02.783Z,2.17
2018-10-02T19:54:06.144Z,3.90
2018-10-02T19:59:09.476Z,1.53
2018-10-02T20:04:13.052Z,1.53
2018-10-02T20:09:18.068Z,3.70
2018-10-02T20:14:21.426Z,4.53
2018-10-02T20:19:24.772Z,2.33
2018-10-02T20:24:28.092Z,1.27
2018-10-02T20:29:31.433Z,3.27
2018-10-02T20:34:34.763Z,4.07
2018-10-02T20:39:38.104Z,2.30
2018-10-02T20:44:41.433Z,2.37
2018-10-02T20:49:44.760Z,3.20
2018-10-02T20:54:48.125Z,5.40
2018-10-02T20:59:51.426Z,2.00
2018-10-02T21:04:54.743Z,1.93
2018-10-02T21:09:58.837Z,3.97
2018-10-02T21:15:02.165Z,2.33
2018-10-02T21:20:05.594Z,1.57
2018-10-02T21:25:08.847Z,4.40
2018-10-02T21:30:12.166Z,3.43
2018-10-02T21:35:15.486Z,7.03
2018-10-02T21:40:18.970Z,3.20
2018-10-02T21:45:22.151Z,3.40
2018-10-02T21:50:25.479Z,2.37
2018-10-02T21:55:29.570Z,3.63
2018-10-02T22:00:32.887Z,5.33
2018-10-02T22:05:36.215Z,4.33
2018-10-02T22:10:39.533Z,7.00
2018-10-02T22:15:42.858Z,3.83
2018-10-02T22:20:46.955Z,3.73
2018-10-02T22:25:50.274Z,3.93
2018-10-02T22:30:53.686Z,4.10
2018-10-02T22:35:57.014Z,3.70
2018-10-02T22:41:00.345Z,3.43
2018-10-02T22:46:04.434Z,5.37
2018-10-02T22:51:07.750Z,4.20
2018-10-02T22:56:11.070Z,3.20
2018-10-02T23:01:14.397Z,4.77
2018-10-02T23:06:17.735Z,3.87
2018-10-02T23:11:21.821Z,3.87
